地図

経路データ

SID SEASON NUMBER BASIN SUBBASIN NAME ISO_TIME NATURE LAT LON WMO_WIND WMO_PRES WMO_AGENCY TRACK_TYPE DIST2LAND LANDFALL IFLAG USA_AGENCY USA_ATCF_ID USA_LAT USA_LON USA_RECORD USA_STATUS USA_WIND USA_PRES USA_SSHS USA_R34_NE USA_R34_SE USA_R34_SW USA_R34_NW USA_R50_NE USA_R50_SE USA_R50_SW USA_R50_NW USA_R64_NE USA_R64_SE USA_R64_SW USA_R64_NW USA_POCI USA_ROCI USA_RMW USA_EYE TOKYO_LAT TOKYO_LON TOKYO_GRADE TOKYO_WIND TOKYO_PRES TOKYO_R50_DIR TOKYO_R50_LONG TOKYO_R50_SHORT TOKYO_R30_DIR TOKYO_R30_LONG TOKYO_R30_SHORT TOKYO_LAND CMA_LAT CMA_LON CMA_CAT CMA_WIND CMA_PRES HKO_LAT HKO_LON HKO_CAT HKO_WIND HKO_PRES NEWDELHI_LAT NEWDELHI_LON NEWDELHI_GRADE NEWDELHI_WIND NEWDELHI_PRES NEWDELHI_CI NEWDELHI_DP NEWDELHI_POCI REUNION_LAT REUNION_LON REUNION_TYPE REUNION_WIND REUNION_PRES REUNION_TNUM REUNION_CI REUNION_RMW REUNION_R34_NE REUNION_R34_SE REUNION_R34_SW REUNION_R34_NW REUNION_R50_NE REUNION_R50_SE REUNION_R50_SW REUNION_R50_NW REUNION_R64_NE REUNION_R64_SE REUNION_R64_SW REUNION_R64_NW BOM_LAT BOM_LON BOM_TYPE BOM_WIND BOM_PRES BOM_TNUM BOM_CI BOM_RMW BOM_R34_NE BOM_R34_SE BOM_R34_SW BOM_R34_NW BOM_R50_NE BOM_R50_SE BOM_R50_SW BOM_R50_NW BOM_R64_NE BOM_R64_SE BOM_R64_SW BOM_R64_NW BOM_ROCI BOM_POCI BOM_EYE BOM_POS_METHOD BOM_PRES_METHOD NADI_LAT NADI_LON NADI_CAT NADI_WIND NADI_PRES WELLINGTON_LAT WELLINGTON_LON WELLINGTON_WIND WELLINGTON_PRES DS824_LAT DS824_LON DS824_STAGE DS824_WIND DS824_PRES TD9636_LAT TD9636_LON TD9636_STAGE TD9636_WIND TD9636_PRES TD9635_LAT TD9635_LON TD9635_WIND TD9635_PRES TD9635_ROCI NEUMANN_LAT NEUMANN_LON NEUMANN_CLASS NEUMANN_WIND NEUMANN_PRES MLC_LAT MLC_LON MLC_CLASS MLC_WIND MLC_PRES USA_GUST BOM_GUST BOM_GUST_PER REUNION_GUST REUNION_GUST_PER USA_SEAHGT USA_SEARAD_NE USA_SEARAD_SE USA_SEARAD_SW USA_SEARAD_NW STORM_SPEED STORM_DIR
2015173N20067 2015 36 NI AS NOT_NAMED 2015-06-22 03:00:00 NR 20.0000 67.0000 25 990 newdelhi main 323 323 ____O_________ -1 20.0000 67.0000 D 25 990 1.50000 4 0 0
2015173N20067 2015 36 NI AS NOT_NAMED 2015-06-22 06:00:00 NR 20.0000 67.0000 25 990 newdelhi main 323 323 ____O_________ -1 20.0000 67.0000 D 25 990 1.50000 4 1 262
2015173N20067 2015 36 NI AS NOT_NAMED 2015-06-22 09:00:00 NR 19.9859 66.8979 main 330 323 ____P_________ -1 19.9859 66.8979 D 25 990 4 0 0
2015173N20067 2015 36 NI AS NOT_NAMED 2015-06-22 12:00:00 NR 20.0000 67.0000 25 990 newdelhi main 323 273 ____O_________ -1 20.0000 67.0000 D 25 990 1.50000 4 7 83
2015173N20067 2015 36 NI AS NOT_NAMED 2015-06-22 15:00:00 NR 20.0785 67.6749 main 266 197 ____P_________ -1 20.0785 67.6749 D 25 990 4 14 82
2015173N20067 2015 36 NI AS NOT_NAMED 2015-06-22 18:00:00 NR 20.2000 68.5000 25 990 newdelhi main 197 152 ____O_________ -1 20.2000 68.5000 D 25 990 1.50000 4 12 76
2015173N20067 2015 36 NI AS NOT_NAMED 2015-06-22 21:00:00 NR 20.3727 68.9318 main 152 98 ____P_________ -1 20.3727 68.9318 D 25 989 4 10 72
2015173N20067 2015 36 NI AS NOT_NAMED 2015-06-23 00:00:00 NR 20.5000 69.5000 25 988 newdelhi main 98 38 ____O_________ -1 20.5000 69.5000 D 25 988 1.50000 4 15 85
2015173N20067 2015 36 NI AS NOT_NAMED 2015-06-23 03:00:00 NR 20.5000 70.5000 30 988 newdelhi main 38 0 ____O_________ -1 20.5000 70.5000 DD 30 988 2.00000 6 15 70
2015173N20067 2015 36 NI AS NOT_NAMED 2015-06-23 06:00:00 NR 21.0000 71.0000 30 988 newdelhi main 0 0 ____O_________ -1 21.0000 71.0000 DD 30 988 2.00000 6 9 51
2015173N20067 2015 36 NI AS NOT_NAMED 2015-06-23 09:00:00 NR 21.0612 71.2358 main 0 0 ____P_________ -1 21.0612 71.2358 DD 30 989 5 3 90
2015173N20067 2015 36 NI AS NOT_NAMED 2015-06-23 12:00:00 NR 21.0000 71.3000 30 990 newdelhi main 0 0 ____O_________ -1 21.0000 71.3000 DD 30 990 0.00000 5 2 31
2015173N20067 2015 36 NI AS NOT_NAMED 2015-06-23 15:00:00 NR 21.2550 71.3650 main 0 0 ____P_________ -1 21.2550 71.3650 DD 30 990 5 6 9
2015173N20067 2015 36 NI AS NOT_NAMED 2015-06-23 18:00:00 NR 21.6000 71.4000 30 990 newdelhi main 0 0 ____O_________ -1 21.6000 71.4000 DD 30 990 0.00000 5 7 358
2015173N20067 2015 36 NI AS NOT_NAMED 2015-06-23 21:00:00 NR 21.9202 71.3583 main 0 0 ____P_________ -1 21.9202 71.3583 DD 30 990 4 6 8
2015173N20067 2015 36 NI AS NOT_NAMED 2015-06-24 00:00:00 NR 22.2000 71.5000 30 990 newdelhi main 0 0 ____O_________ -1 22.2000 71.5000 DD 30 990 0.00000 4 8 51
2015173N20067 2015 36 NI AS NOT_NAMED 2015-06-24 03:00:00 NR 22.4000 72.0000 30 990 newdelhi main 0 0 ____O_________ -1 22.4000 72.0000 DD 30 990 0.00000 4 13 62
2015173N20067 2015 36 NI AS NOT_NAMED 2015-06-24 06:00:00 NR 22.8000 72.7000 30 990 newdelhi main 0 0 ____O_________ -1 22.8000 72.7000 DD 30 990 0.00000 3 14 62
2015173N20067 2015 36 NI AS NOT_NAMED 2015-06-24 09:00:00 NR 23.0366 73.3160 main 0 0 ____P_________ -1 23.0366 73.3160 DD 27 991 3 14 60
2015173N20067 2015 36 NI AS NOT_NAMED 2015-06-24 12:00:00 NR 23.5000 74.0000 25 992 newdelhi main 0 0 ____O_________ -1 23.5000 74.0000 D 25 992 0.00000 3 21 44
2015173N20067 2015 36 NI AS NOT_NAMED 2015-06-24 15:00:00 NR 24.5647 74.9172 main 0 0 ____P_________ -1 24.5647 74.9172 D 25 993 3 31 36
2015173N20067 2015 36 NI AS NOT_NAMED 2015-06-24 18:00:00 NR 26.0000 76.0000 25 994 newdelhi main 0 ____O_________ -1 26.0000 76.0000 D 25 994 0.00000 3 35 34

IBTrACS Databaseについて

本データベースは、米国NOAAが公開する1842年以降の世界の熱帯低気圧のベストトラックデータアーカイブInternational Best Track Archive for Climate Stewardship (IBTrACS)を、ウェブで閲覧しやすい形式に変換したものです。

最終更新日:2021-10-25